createdAt,value
2022-11-23T00:01:53.502Z,0
2022-11-23T00:03:54.500Z,0
2022-11-23T00:05:55.935Z,0
2022-11-23T00:07:57.052Z,0
2022-11-23T00:09:58.255Z,0.561
2022-11-23T00:11:59.614Z,0
2022-11-23T00:14:01.222Z,0
2022-11-23T00:16:02.481Z,0.14
2022-11-23T00:20:05.123Z,0.561
2022-11-23T00:24:07.892Z,1.263
2022-11-23T00:26:09.377Z,0.702
2022-11-23T00:28:11.088Z,0
2022-11-23T00:30:12.598Z,0
2022-11-23T00:34:14.948Z,1.123
2022-11-23T00:36:16.796Z,0.28
2022-11-23T00:38:18.204Z,0
2022-11-23T00:40:20.186Z,0.14
2022-11-23T00:42:21.208Z,0
2022-11-23T00:44:22.384Z,0.28
2022-11-23T00:46:24.249Z,0.982
2022-11-23T00:48:26.659Z,0.14
2022-11-23T00:50:27.866Z,1.684
2022-11-23T00:52:29.541Z,0
2022-11-23T00:54:31.100Z,0
2022-11-23T00:56:33.164Z,0
2022-11-23T00:58:34.553Z,0
2022-11-23T01:00:36.292Z,0.14
2022-11-23T01:02:37.366Z,0
2022-11-23T01:06:40.647Z,0
2022-11-23T01:08:42.341Z,0
2022-11-23T01:10:43.775Z,0
2022-11-23T01:12:45.585Z,0.842
2022-11-23T01:16:48.267Z,0
2022-11-23T01:18:49.745Z,0.561
2022-11-23T01:20:51.245Z,0
2022-11-23T01:22:52.598Z,0
2022-11-23T01:24:54.169Z,0.14
2022-11-23T01:26:55.959Z,0.421
2022-11-23T01:28:57.001Z,0
2022-11-23T01:30:58.619Z,1.965
2022-11-23T01:33:00.022Z,0
2022-11-23T01:35:01.651Z,1.965
2022-11-23T01:37:03.006Z,0.421
2022-11-23T01:39:04.475Z,2.808
2022-11-23T01:41:06.171Z,0
2022-11-23T01:43:07.758Z,1.544
2022-11-23T01:45:09.230Z,0.28
2022-11-23T01:47:10.880Z,2.386
2022-11-23T01:49:12.800Z,0.421
2022-11-23T01:51:14.078Z,0.421
2022-11-23T01:53:15.277Z,0.982
2022-11-23T01:55:16.355Z,1.123
2022-11-23T01:57:17.546Z,2.106
2022-11-23T01:59:19.561Z,0
2022-11-23T02:01:20.903Z,2.386
2022-11-23T02:03:22.366Z,1.404
2022-11-23T02:05:23.481Z,1.123
2022-11-23T02:07:24.905Z,0
2022-11-23T02:09:26.388Z,1.404
2022-11-23T02:11:27.476Z,0.702
2022-11-23T02:13:28.794Z,0.421
2022-11-23T02:15:29.910Z,0
2022-11-23T02:17:31.189Z,1.404
2022-11-23T02:19:32.667Z,0
2022-11-23T02:21:33.624Z,0.14
2022-11-23T02:23:34.748Z,1.544
2022-11-23T02:25:35.836Z,0.14
2022-11-23T02:27:36.849Z,1.404
2022-11-23T02:29:38.619Z,0
2022-11-23T02:31:39.771Z,0
2022-11-23T02:33:40.889Z,0
2022-11-23T02:37:44.379Z,0
2022-11-23T02:39:45.652Z,0
2022-11-23T02:41:46.770Z,0
2022-11-23T02:43:48.627Z,0
2022-11-23T02:47:51.637Z,0
2022-11-23T02:49:53.385Z,0
2022-11-23T02:51:54.515Z,0
2022-11-23T02:53:56.533Z,0
2022-11-23T02:55:58.366Z,0
2022-11-23T02:58:00.195Z,0
2022-11-23T03:00:01.819Z,0.28
2022-11-23T03:02:03.410Z,0
2022-11-23T03:04:05.370Z,0
2022-11-23T03:06:06.833Z,0
2022-11-23T03:08:08.205Z,0.982
2022-11-23T03:10:09.478Z,0.702
2022-11-23T03:12:11.399Z,0.28
2022-11-23T03:14:13.042Z,0.982
2022-11-23T03:16:14.828Z,0.702
2022-11-23T03:20:18.724Z,1.263
2022-11-23T03:22:20.306Z,1.825
2022-11-23T03:24:21.753Z,0
2022-11-23T03:26:23.317Z,0.421
2022-11-23T03:28:25.184Z,0.14
2022-11-23T03:30:26.778Z,1.263
2022-11-23T03:32:28.697Z,0.561
2022-11-23T03:34:30.406Z,1.123
2022-11-23T03:36:31.582Z,0
2022-11-23T03:38:33.169Z,1.965
2022-11-23T03:40:35.103Z,0
2022-11-23T03:42:36.564Z,1.263
2022-11-23T03:44:38.025Z,2.527
2022-11-23T03:46:39.052Z,1.684
2022-11-23T03:48:40.833Z,2.808
2022-11-23T03:50:42.035Z,0.702
2022-11-23T03:52:43.644Z,0
2022-11-23T03:54:44.875Z,0
2022-11-23T03:56:46.212Z,0.842
2022-11-23T03:58:47.619Z,1.123
2022-11-23T04:02:50.587Z,0.28
2022-11-23T04:04:52.328Z,0
2022-11-23T04:06:54.264Z,0
2022-11-23T04:09:00.496Z,0
2022-11-23T04:12:58.716Z,0
2022-11-23T04:15:00.161Z,0
2022-11-23T04:17:02.194Z,0
2022-11-23T04:19:03.508Z,0
2022-11-23T04:21:05.496Z,2.106
2022-11-23T04:23:11.874Z,1.825
2022-11-23T04:25:09.491Z,1.263
2022-11-23T04:27:11.300Z,1.684
2022-11-23T04:29:12.830Z,0
2022-11-23T04:31:14.938Z,0.14
2022-11-23T04:33:16.032Z,0
2022-11-23T04:35:17.535Z,0.14
2022-11-23T04:37:19.104Z,0.14
2022-11-23T04:39:20.961Z,0
2022-11-23T04:41:22.056Z,0.14
2022-11-23T04:45:25.364Z,0
2022-11-23T04:47:26.690Z,0
2022-11-23T04:48:10.591Z,0
2022-11-23T04:50:11.858Z,0
2022-11-23T04:52:13.719Z,0
2022-11-23T04:54:15.119Z,0
2022-11-23T04:56:16.723Z,0
2022-11-23T04:58:18.451Z,1.404
2022-11-23T05:00:19.512Z,0
2022-11-23T05:02:21.243Z,0
2022-11-23T05:04:23.283Z,0
2022-11-23T05:06:25.085Z,0
2022-11-23T05:08:26.566Z,0
2022-11-23T05:10:28.601Z,0
2022-11-23T05:12:30.062Z,0
2022-11-23T05:14:31.488Z,0
2022-11-23T05:16:32.710Z,0
2022-11-23T05:18:34.446Z,0
2022-11-23T05:22:36.854Z,0
2022-11-23T05:24:38.278Z,0
2022-11-23T05:26:40.051Z,0
2022-11-23T05:28:41.954Z,0
2022-11-23T05:32:44.446Z,0
2022-11-23T05:34:45.772Z,0
2022-11-23T05:36:46.942Z,0
2022-11-23T05:38:48.479Z,0.14
2022-11-23T05:40:50.035Z,0
2022-11-23T05:42:51.983Z,0.14
2022-11-23T05:44:53.710Z,1.825
2022-11-23T05:46:54.849Z,0.561
2022-11-23T05:48:56.688Z,2.386
2022-11-23T05:51:02.291Z,0
2022-11-23T05:52:59.611Z,0.28
2022-11-23T05:55:01.131Z,0.702
2022-11-23T05:57:02.740Z,0.702
2022-11-23T05:59:04.206Z,0
2022-11-23T06:01:05.957Z,1.123
2022-11-23T06:05:09.464Z,0.561
2022-11-23T06:07:11.080Z,0.14
2022-11-23T06:09:12.727Z,0
2022-11-23T06:11:14.524Z,2.246
2022-11-23T06:15:17.976Z,0
2022-11-23T06:17:19.648Z,0
2022-11-23T06:19:21.633Z,0
2022-11-23T06:21:22.683Z,0
2022-11-23T06:23:24.510Z,0
2022-11-23T06:25:25.571Z,0
2022-11-23T06:27:26.842Z,0
2022-11-23T06:29:28.119Z,0.702
2022-11-23T06:31:30.064Z,1.684
2022-11-23T06:33:32.076Z,0.702
2022-11-23T06:35:33.443Z,0
2022-11-23T06:37:35.019Z,0
2022-11-23T06:39:36.198Z,0
2022-11-23T06:41:37.162Z,0
2022-11-23T06:43:38.581Z,0
2022-11-23T06:45:39.619Z,0
2022-11-23T06:47:41.351Z,0
2022-11-23T06:49:43.274Z,0
2022-11-23T06:51:44.591Z,0
2022-11-23T06:53:46.368Z,0
2022-11-23T06:55:47.577Z,0
2022-11-23T06:57:48.567Z,2.527
2022-11-23T06:59:50.154Z,0
2022-11-23T07:01:51.279Z,0
2022-11-23T07:03:53.289Z,0
2022-11-23T07:05:55.051Z,0.982
2022-11-23T07:07:56.705Z,1.684
2022-11-23T07:09:59.946Z,0.842
2022-11-23T07:11:59.803Z,0
2022-11-23T07:14:01.262Z,0.14
2022-11-23T07:16:02.700Z,1.965
2022-11-23T07:18:03.909Z,0
2022-11-23T07:20:05.534Z,0
2022-11-23T07:22:06.651Z,0.702
2022-11-23T07:24:08.200Z,0
2022-11-23T07:26:09.290Z,0
2022-11-23T07:28:11.123Z,0
2022-11-23T07:30:12.795Z,1.684
2022-11-23T07:32:14.557Z,0.421
2022-11-23T07:34:16.055Z,1.123
2022-11-23T07:36:17.529Z,0
2022-11-23T07:38:19.214Z,0
2022-11-23T07:40:20.857Z,0
2022-11-23T07:42:32.925Z,0
2022-11-23T07:44:23.617Z,0
2022-11-23T07:46:24.782Z,0
2022-11-23T07:48:26.060Z,0
2022-11-23T07:50:27.938Z,0
2022-11-23T07:52:29.463Z,0
2022-11-23T07:54:30.576Z,0
2022-11-23T07:56:32.551Z,0
2022-11-23T07:58:33.785Z,0.421
2022-11-23T08:00:35.406Z,0
2022-11-23T08:02:37.013Z,0
2022-11-23T08:04:37.996Z,0
2022-11-23T08:06:40.002Z,0
2022-11-23T08:08:41.488Z,0
2022-11-23T08:10:46.219Z,0
2022-11-23T08:12:44.119Z,0
2022-11-23T08:14:45.212Z,0
2022-11-23T08:16:46.222Z,0
2022-11-23T08:18:47.913Z,0
2022-11-23T08:20:49.769Z,0
2022-11-23T08:22:50.930Z,0.842
2022-11-23T08:24:52.287Z,0
2022-11-23T08:28:56.128Z,1.123
2022-11-23T08:30:57.687Z,0.14
2022-11-23T08:32:59.355Z,0
2022-11-23T08:35:00.547Z,0
2022-11-23T08:39:04.143Z,0.28
2022-11-23T08:41:05.209Z,0
2022-11-23T08:43:06.971Z,0
2022-11-23T08:45:08.175Z,0
2022-11-23T08:47:09.534Z,0
2022-11-23T08:51:12.983Z,0
2022-11-23T08:53:14.506Z,0
2022-11-23T08:55:15.902Z,0
2022-11-23T08:57:17.619Z,0
2022-11-23T08:59:19.014Z,0
2022-11-23T09:01:20.924Z,0
2022-11-23T09:03:22.505Z,0
2022-11-23T09:05:23.928Z,0
2022-11-23T09:07:25.722Z,0
2022-11-23T09:11:28.326Z,0.14
2022-11-23T09:13:30.236Z,0
2022-11-23T09:15:31.535Z,0
2022-11-23T09:17:32.670Z,0
2022-11-23T09:21:34.950Z,0
2022-11-23T09:23:36.724Z,0
2022-11-23T09:25:37.778Z,0
2022-11-23T09:27:38.923Z,0
2022-11-23T09:29:40.427Z,0
2022-11-23T09:31:41.703Z,0
2022-11-23T09:33:43.532Z,0.14
2022-11-23T09:35:45.862Z,0.28
2022-11-23T09:37:46.700Z,0.421
2022-11-23T09:39:48.334Z,0
2022-11-23T09:43:51.417Z,1.123
2022-11-23T09:45:52.608Z,1.263
2022-11-23T09:47:54.168Z,0
2022-11-23T09:49:55.743Z,1.544
2022-11-23T09:53:57.880Z,1.123
2022-11-23T09:55:59.449Z,2.246
2022-11-23T09:58:00.317Z,3.931
2022-11-23T10:00:01.440Z,2.386
2022-11-23T10:02:03.197Z,2.386
2022-11-23T10:04:04.854Z,4.633
2022-11-23T10:06:06.433Z,2.246
2022-11-23T10:08:08.005Z,5.335
2022-11-23T10:10:08.884Z,6.037
2022-11-23T10:12:09.833Z,5.054
2022-11-23T10:14:11.014Z,4.212
2022-11-23T10:16:12.028Z,2.386
2022-11-23T10:18:13.591Z,3.79
2022-11-23T10:20:15.270Z,4.773
2022-11-23T10:22:16.452Z,7.02
2022-11-23T10:24:18.494Z,1.684
2022-11-23T10:26:19.605Z,2.948
2022-11-23T10:28:20.957Z,3.65
2022-11-23T10:30:22.111Z,2.246
2022-11-23T10:32:23.434Z,2.948
2022-11-23T10:34:25.165Z,1.544
2022-11-23T10:36:26.722Z,1.544
2022-11-23T10:38:28.337Z,2.106
2022-11-23T10:40:29.833Z,1.544
2022-11-23T10:42:32.280Z,4.352
2022-11-23T10:44:34.401Z,2.246
2022-11-23T10:46:35.455Z,1.825
2022-11-23T10:48:37.187Z,3.088
2022-11-23T10:50:38.519Z,2.246
2022-11-23T10:52:39.788Z,1.123
2022-11-23T10:54:41.593Z,2.246
2022-11-23T10:56:42.413Z,1.404
2022-11-23T10:58:43.975Z,5.054
2022-11-23T11:00:45.137Z,2.527
2022-11-23T11:02:46.632Z,3.79
2022-11-23T11:04:48.437Z,4.071
2022-11-23T11:06:50.024Z,2.948
2022-11-23T11:08:52.354Z,3.229
2022-11-23T11:10:53.866Z,2.667
2022-11-23T11:12:55.293Z,2.527
2022-11-23T11:14:59.278Z,2.106
2022-11-23T11:16:57.340Z,5.335
2022-11-23T11:18:58.194Z,4.212
2022-11-23T11:20:59.362Z,3.088
2022-11-23T11:23:00.675Z,2.948
2022-11-23T11:25:01.668Z,4.212
2022-11-23T11:27:03.051Z,4.914
2022-11-23T11:29:04.751Z,4.492
2022-11-23T11:31:05.713Z,4.212
2022-11-23T11:33:51.140Z,5.054
2022-11-23T11:35:52.714Z,1.263
2022-11-23T11:39:55.734Z,4.633
2022-11-23T11:41:56.587Z,2.808
2022-11-23T11:43:57.507Z,5.054
2022-11-23T11:46:27.798Z,3.79
2022-11-23T11:47:59.637Z,4.352
2022-11-23T11:50:00.697Z,3.51
2022-11-23T11:52:02.194Z,4.773
2022-11-23T11:54:04.747Z,5.896
2022-11-23T11:56:06.560Z,7.581
2022-11-23T11:58:07.495Z,4.492
2022-11-23T12:02:10.833Z,5.335
2022-11-23T12:04:12.642Z,2.808
2022-11-23T12:06:13.912Z,6.739
2022-11-23T12:08:15.075Z,2.246
2022-11-23T12:10:15.973Z,4.914
2022-11-23T12:12:17.286Z,6.739
2022-11-23T12:14:18.912Z,3.088
2022-11-23T12:16:19.904Z,4.633
2022-11-23T12:18:21.418Z,2.948
2022-11-23T12:20:23.118Z,6.598
2022-11-23T12:22:24.539Z,2.246
2022-11-23T12:24:25.957Z,4.773
2022-11-23T12:26:27.767Z,3.79
2022-11-23T12:28:29.564Z,3.931
2022-11-23T12:30:30.590Z,2.948
2022-11-23T12:32:31.529Z,8.564
2022-11-23T12:34:33.092Z,2.527
2022-11-23T12:36:33.815Z,7.581
2022-11-23T12:38:35.096Z,3.088
2022-11-23T12:40:36.100Z,2.667
2022-11-23T12:42:37.050Z,3.088
2022-11-23T12:44:38.749Z,2.808
2022-11-23T12:46:40.124Z,4.633
2022-11-23T12:48:41.347Z,4.773
2022-11-23T12:50:42.883Z,4.352
2022-11-23T12:52:44.571Z,6.318
2022-11-23T12:54:45.963Z,4.492
2022-11-23T12:56:47.241Z,10.53
2022-11-23T12:58:49.493Z,1.965
2022-11-23T13:00:51.010Z,4.633
2022-11-23T13:02:52.527Z,6.879
2022-11-23T13:04:53.838Z,2.246
2022-11-23T13:07:20.618Z,5.475
2022-11-23T13:10:57.345Z,5.194
2022-11-23T13:12:58.730Z,5.475
2022-11-23T13:14:59.947Z,5.896
2022-11-23T13:17:01.444Z,12.074
2022-11-23T13:21:04.337Z,8.424
2022-11-23T13:23:05.684Z,4.773
2022-11-23T13:25:07.481Z,7.3
2022-11-23T13:27:08.757Z,3.79
2022-11-23T13:29:09.722Z,8.002
2022-11-23T13:33:11.831Z,9.406
2022-11-23T13:35:12.712Z,6.037
2022-11-23T13:37:14.524Z,5.616
2022-11-23T13:39:15.216Z,5.194
2022-11-23T13:43:17.446Z,5.616
2022-11-23T13:45:19.263Z,4.914
2022-11-23T13:47:20.795Z,4.773
2022-11-23T13:49:22.581Z,2.527
2022-11-23T13:53:24.919Z,2.667
2022-11-23T13:55:26.005Z,6.879
2022-11-23T13:57:27.508Z,4.492
2022-11-23T13:59:28.828Z,4.492
2022-11-23T14:01:29.892Z,5.194
2022-11-23T14:03:31.752Z,2.667
2022-11-23T14:05:32.964Z,7.3
2022-11-23T14:07:33.935Z,4.773
2022-11-23T14:09:35.226Z,3.369
2022-11-23T14:11:37.056Z,5.896
2022-11-23T14:13:38.639Z,5.756
2022-11-23T14:15:39.707Z,6.318
2022-11-23T14:17:40.970Z,5.616
2022-11-23T14:19:42.535Z,4.492
2022-11-23T14:21:43.528Z,6.318
2022-11-23T14:23:45.235Z,7.16
2022-11-23T14:25:46.192Z,3.79
2022-11-23T14:27:47.943Z,3.79
2022-11-23T14:29:48.069Z,4.071
2022-11-23T14:31:49.208Z,2.948
2022-11-23T14:33:50.597Z,6.318
2022-11-23T14:35:52.213Z,4.492
2022-11-23T14:37:54.071Z,2.246
2022-11-23T14:39:55.086Z,0.702
2022-11-23T14:41:56.837Z,4.071
2022-11-23T14:43:58.471Z,2.246
2022-11-23T14:45:59.596Z,0.28
2022-11-23T14:48:00.947Z,4.212
2022-11-23T14:52:04.226Z,2.246
2022-11-23T14:54:05.705Z,0
2022-11-23T14:56:07.112Z,3.51
2022-11-23T14:58:08.916Z,1.263
2022-11-23T15:02:11.911Z,2.808
2022-11-23T15:04:13.726Z,5.335
2022-11-23T15:06:15.087Z,4.212
2022-11-23T15:08:16.758Z,4.492
2022-11-23T15:10:18.185Z,4.212
2022-11-23T15:12:19.483Z,3.369
2022-11-23T15:14:20.720Z,5.475
2022-11-23T15:16:22.051Z,5.054
2022-11-23T15:18:23.497Z,2.246
2022-11-23T15:20:24.865Z,2.106
2022-11-23T15:22:26.337Z,3.229
2022-11-23T15:24:27.379Z,4.492
2022-11-23T15:26:47.161Z,2.386
2022-11-23T15:28:30.232Z,1.263
2022-11-23T15:30:31.307Z,4.492
2022-11-23T15:34:34.980Z,4.633
2022-11-23T15:36:36.170Z,5.616
2022-11-23T15:38:37.470Z,3.369
2022-11-23T15:40:38.424Z,2.386
2022-11-23T15:44:43.865Z,4.352
2022-11-23T15:46:42.673Z,3.51
2022-11-23T15:48:43.898Z,2.808
2022-11-23T15:50:45.754Z,3.931
2022-11-23T15:52:47.119Z,3.931
2022-11-23T15:54:48.139Z,4.773
2022-11-23T15:56:49.161Z,4.773
2022-11-23T15:58:50.961Z,2.106
2022-11-23T16:00:52.998Z,3.931
2022-11-23T16:02:54.829Z,2.386
2022-11-23T16:06:58.014Z,0
2022-11-23T16:08:59.173Z,2.948
2022-11-23T16:11:00.396Z,1.684
2022-11-23T16:13:02.181Z,0.421
2022-11-23T16:17:05.553Z,3.088
2022-11-23T16:19:06.945Z,2.106
2022-11-23T16:21:08.130Z,3.65
2022-11-23T16:23:10.071Z,1.544
2022-11-23T16:27:12.327Z,2.106
2022-11-23T16:29:13.477Z,1.263
2022-11-23T16:31:15.428Z,3.369
2022-11-23T16:33:16.503Z,0.842
2022-11-23T16:35:18.168Z,0.982
2022-11-23T16:37:19.862Z,1.263
2022-11-23T16:39:20.976Z,0
2022-11-23T16:41:22.293Z,1.263
2022-11-23T16:43:23.520Z,3.229
2022-11-23T16:45:25.300Z,4.492
2022-11-23T16:47:26.397Z,1.965
2022-11-23T16:49:27.866Z,2.808
2022-11-23T16:51:28.950Z,3.65
2022-11-23T16:53:41.956Z,3.79
2022-11-23T16:55:32.787Z,2.246
2022-11-23T16:57:34.482Z,3.369
2022-11-23T16:59:36.598Z,0.14
2022-11-23T17:01:38.272Z,0.842
2022-11-23T17:03:39.766Z,0.28
2022-11-23T17:05:41.351Z,0.28
2022-11-23T17:07:43.365Z,0
2022-11-23T17:09:44.340Z,0.14
2022-11-23T17:11:45.507Z,0
2022-11-23T17:13:47.182Z,0.14
2022-11-23T17:15:49.184Z,0.14
2022-11-23T17:17:50.725Z,0.982
2022-11-23T17:19:51.737Z,0
2022-11-23T17:21:53.636Z,1.263
2022-11-23T17:23:55.443Z,0
2022-11-23T17:25:57.018Z,0
2022-11-23T17:27:58.844Z,1.404
2022-11-23T17:30:00.261Z,2.246
2022-11-23T17:32:01.515Z,0
2022-11-23T17:34:02.589Z,0
2022-11-23T17:36:03.641Z,1.825
2022-11-23T17:38:05.365Z,0.842
2022-11-23T17:40:07.109Z,0.421
2022-11-23T17:42:09.036Z,1.965
2022-11-23T17:44:10.450Z,0
2022-11-23T17:46:11.995Z,0
2022-11-23T17:48:13.085Z,0
2022-11-23T17:50:14.509Z,0.14
2022-11-23T17:52:16.291Z,0
2022-11-23T17:54:17.563Z,0
2022-11-23T17:56:19.563Z,0
2022-11-23T17:58:21.320Z,0.702
2022-11-23T18:00:23.262Z,1.684
2022-11-23T18:02:24.929Z,3.65
2022-11-23T18:04:25.982Z,0
2022-11-23T18:06:27.487Z,1.684
2022-11-23T18:08:28.663Z,0.982
2022-11-23T18:10:30.253Z,1.825
2022-11-23T18:12:31.951Z,0
2022-11-23T18:14:33.559Z,0
2022-11-23T18:16:34.686Z,0.702
2022-11-23T18:18:36.642Z,0
2022-11-23T18:19:20.520Z,0
2022-11-23T18:21:21.879Z,1.684
2022-11-23T18:23:22.960Z,0
2022-11-23T18:25:24.860Z,0.982
2022-11-23T18:27:26.826Z,0
2022-11-23T18:29:27.984Z,0
2022-11-23T18:31:29.050Z,0
2022-11-23T18:35:31.539Z,0
2022-11-23T18:37:33.248Z,0
2022-11-23T18:39:34.798Z,0.561
2022-11-23T18:41:36.192Z,2.808
2022-11-23T18:45:39.365Z,1.123
2022-11-23T18:47:40.896Z,2.386
2022-11-23T18:49:42.716Z,2.246
2022-11-23T18:51:43.721Z,3.369
2022-11-23T18:53:44.918Z,2.106
2022-11-23T18:55:46.244Z,1.263
2022-11-23T18:57:47.327Z,0.561
2022-11-23T18:59:58.508Z,4.914
2022-11-23T19:01:49.682Z,2.667
2022-11-23T19:03:51.448Z,0.982
2022-11-23T19:05:53.069Z,0.561
2022-11-23T19:07:54.171Z,2.527
2022-11-23T19:09:55.165Z,2.246
2022-11-23T19:11:56.174Z,0.561
2022-11-23T19:13:57.583Z,0.982
2022-11-23T19:18:00.391Z,1.684
2022-11-23T19:20:01.249Z,1.404
2022-11-23T19:22:02.246Z,0.982
2022-11-23T19:24:03.369Z,0.28
2022-11-23T19:28:05.678Z,1.404
2022-11-23T19:30:06.900Z,3.088
2022-11-23T19:32:08.182Z,2.386
2022-11-23T19:34:10.012Z,1.123
2022-11-23T19:36:11.374Z,0
2022-11-23T19:38:13.101Z,0
2022-11-23T19:40:15.069Z,0
2022-11-23T19:42:16.732Z,0
2022-11-23T19:44:18.547Z,3.65
2022-11-23T19:46:20.050Z,1.263
2022-11-23T19:48:21.678Z,0.421
2022-11-23T19:50:23.519Z,0
2022-11-23T19:52:33.093Z,0
2022-11-23T19:54:25.881Z,0
2022-11-23T19:56:27.766Z,0
2022-11-23T20:00:30.007Z,0.14
2022-11-23T20:02:31.459Z,0.421
2022-11-23T20:04:33.451Z,0
2022-11-23T20:06:35.054Z,0.28
2022-11-23T20:08:36.142Z,0.982
2022-11-23T20:10:37.472Z,0.14
2022-11-23T20:12:39.406Z,0
2022-11-23T20:14:40.491Z,0
2022-11-23T20:16:42.354Z,0
2022-11-23T20:18:43.970Z,0
2022-11-23T20:20:45.284Z,0
2022-11-23T20:22:46.584Z,0
2022-11-23T20:24:48.161Z,0
2022-11-23T20:26:50.028Z,0.421
2022-11-23T20:28:51.224Z,0
2022-11-23T20:30:52.930Z,0.14
2022-11-23T20:32:54.112Z,0
2022-11-23T20:34:56.074Z,0
2022-11-23T20:36:57.082Z,0
2022-11-23T20:38:58.130Z,0.561
2022-11-23T20:40:59.737Z,0.14
2022-11-23T20:43:01.039Z,0.421
2022-11-23T20:45:02.278Z,0.421
2022-11-23T20:47:04.015Z,0.842
2022-11-23T20:49:05.550Z,1.544
2022-11-23T20:51:10.356Z,0.28
2022-11-23T20:53:08.689Z,0
2022-11-23T20:55:09.851Z,0.28
2022-11-23T20:57:11.479Z,1.123
2022-11-23T20:59:12.796Z,1.684
2022-11-23T21:01:14.648Z,1.825
2022-11-23T21:03:16.232Z,3.229
2022-11-23T21:05:17.200Z,0
2022-11-23T21:07:18.837Z,3.931
2022-11-23T21:09:20.525Z,0
2022-11-23T21:11:22.006Z,3.51
2022-11-23T21:13:23.448Z,0.842
2022-11-23T21:15:25.046Z,0.28
2022-11-23T21:17:26.343Z,0
2022-11-23T21:21:28.817Z,1.684
2022-11-23T21:23:30.610Z,0
2022-11-23T21:25:32.300Z,2.948
2022-11-23T21:27:33.433Z,1.404
2022-11-23T21:29:35.402Z,1.965
2022-11-23T21:31:36.700Z,0
2022-11-23T21:33:38.481Z,0
2022-11-23T21:35:40.364Z,1.123
2022-11-23T21:37:41.475Z,0
2022-11-23T21:39:44.582Z,0.421
2022-11-23T21:41:44.035Z,2.948
2022-11-23T21:43:45.829Z,0.982
2022-11-23T21:45:47.280Z,0.982
2022-11-23T21:47:48.999Z,4.212
2022-11-23T21:49:50.832Z,1.263
2022-11-23T21:51:52.398Z,2.106
2022-11-23T21:53:53.496Z,1.825
2022-11-23T21:55:55.012Z,2.808
2022-11-23T21:57:56.378Z,2.246
2022-11-23T21:59:57.895Z,4.071
2022-11-23T22:01:59.896Z,0.561
2022-11-23T22:04:00.883Z,1.684
2022-11-23T22:06:02.824Z,4.212
2022-11-23T22:08:28.072Z,4.633
2022-11-23T22:10:05.107Z,4.071
2022-11-23T22:14:07.662Z,4.352
2022-11-23T22:16:09.386Z,3.369
2022-11-23T22:18:10.991Z,0.842
2022-11-23T22:20:12.878Z,2.808
2022-11-23T22:24:15.819Z,0.28
2022-11-23T22:26:17.192Z,2.246
2022-11-23T22:28:18.186Z,1.825
2022-11-23T22:30:19.261Z,0.28
2022-11-23T22:32:20.395Z,0.421
2022-11-23T22:34:21.732Z,5.194
2022-11-23T22:36:23.237Z,2.667
2022-11-23T22:38:24.588Z,0.14
2022-11-23T22:40:25.771Z,1.544
2022-11-23T22:42:27.445Z,1.684
2022-11-23T22:44:29.145Z,1.263
2022-11-23T22:46:30.247Z,2.106
2022-11-23T22:48:31.442Z,1.825
2022-11-23T22:50:32.797Z,2.667
2022-11-23T22:52:34.104Z,1.123
2022-11-23T22:56:36.883Z,3.931
2022-11-23T22:58:38.303Z,0.421
2022-11-23T23:00:39.263Z,3.931
2022-11-23T23:02:41.131Z,3.931
2022-11-23T23:06:43.970Z,7.722
2022-11-23T23:08:45.545Z,6.739
2022-11-23T23:10:47.335Z,3.931
2022-11-23T23:12:49.103Z,3.51
2022-11-23T23:14:50.426Z,5.756
2022-11-23T23:16:51.603Z,5.335
2022-11-23T23:18:52.901Z,4.071
2022-11-23T23:20:53.979Z,7.3
2022-11-23T23:22:55.102Z,5.896
2022-11-23T23:24:56.806Z,4.773
2022-11-23T23:26:58.182Z,4.633
2022-11-23T23:29:00.138Z,7.441
2022-11-23T23:31:02.063Z,7.16
2022-11-23T23:33:03.969Z,5.616
2022-11-23T23:35:05.271Z,4.633
2022-11-23T23:37:07.049Z,7.441
2022-11-23T23:39:08.712Z,5.475
2022-11-23T23:41:10.348Z,6.177
2022-11-23T23:43:12.115Z,3.088
2022-11-23T23:45:13.266Z,4.352
2022-11-23T23:47:14.991Z,7.02
2022-11-23T23:49:16.437Z,11.091
2022-11-23T23:51:17.951Z,0
2022-11-23T23:53:19.223Z,2.667
2022-11-23T23:55:20.457Z,2.106
2022-11-23T23:57:21.517Z,2.808
2022-11-23T23:59:23.169Z,3.088
